Time;durP1;ratioP1;P1;durP2;ratioP2;P2;SDS_P1;SDS_P2;PMS_P1;PMS_P2;Temp;Humidity;BMP_temperature;BMP_pressure;BME280_temperature;BME280_humidity;BME280_pressure;Samples;Min_cycle;Max_cycle;Signal;HPM_P1;HPM_P2
2022/06/03 00:00:36;;;;;;;18.90;11.63;;;512.90;2380.80;;;;;;4989359;28;20082;-58
2022/06/03 00:03:20;;;;;;;15.00;10.23;;;512.90;2380.80;;;;;;4989287;28;20271;-55
2022/06/03 00:05:51;;;;;;;12.85;9.32;;;512.90;2380.80;;;;;;4989138;28;20045;-56
2022/06/03 00:08:48;;;;;;;12.60;9.07;;;512.90;2380.80;;;;;;4989116;28;20113;-56
2022/06/03 00:11:19;;;;;;;12.85;8.68;;;537.60;2406.40;;;;;;4992291;28;20050;-55
2022/06/03 00:13:51;;;;;;;13.32;9.38;;;512.90;2380.80;;;;;;5010781;28;20113;-55
2022/06/03 00:16:35;;;;;;;14.68;9.32;;;512.90;2380.80;;;;;;5010890;28;20056;-56
2022/06/03 00:19:42;;;;;;;13.80;10.68;;;537.60;2406.40;;;;;;5010304;28;20461;-56
2022/06/03 00:22:26;;;;;;;15.70;10.65;;;512.90;2380.80;;;;;;5010731;28;20069;-59
2022/06/03 00:25:18;;;;;;;13.70;9.27;;;512.90;2380.80;;;;;;5010524;28;20485;-54
2022/06/03 00:28:03;;;;;;;12.82;8.70;;;512.70;2380.80;;;;;;5010611;28;20025;-53
2022/06/03 00:31:06;;;;;;;17.02;10.32;;;512.50;2380.80;;;;;;5010709;28;20044;-54
2022/06/03 00:33:57;;;;;;;15.48;9.65;;;512.30;2380.80;;;;;;5010651;28;20072;-55
2022/06/03 00:36:55;;;;;;;16.38;10.02;;;512.30;2380.80;;;;;;5010670;28;20380;-55
2022/06/03 00:39:55;;;;;;;15.45;11.52;;;512.20;2380.80;;;;;;4969057;28;20051;-54
2022/06/03 00:42:29;;;;;;;14.18;9.73;;;512.10;2380.80;;;;;;4969067;28;20355;-54
2022/06/03 00:45:24;;;;;;;16.17;11.25;;;487.30;2380.80;;;;;;4969430;28;20104;-55
2022/06/03 00:48:11;;;;;;;13.77;10.35;;;487.30;2380.80;;;;;;4969067;28;20487;-55
2022/06/03 00:50:39;;;;;;;17.42;10.10;;;487.30;2380.80;;;;;;4969059;28;20131;-55
2022/06/03 00:53:25;;;;;;;17.98;10.68;;;487.30;2380.80;;;;;;4969409;28;20031;-55
2022/06/03 00:56:15;;;;;;;15.55;9.52;;;487.20;2380.80;;;;;;4969042;28;20040;-54
2022/06/03 00:59:09;;;;;;;14.32;9.93;;;487.20;2380.80;;;;;;4968950;28;20078;-53
2022/06/03 01:01:49;;;;;;;10.15;8.65;;;487.00;2380.80;;;;;;4969134;28;20037;-52
2022/06/03 01:04:20;;;;;;;17.50;11.13;;;487.00;2380.80;;;;;;4969113;28;20027;-52
2022/06/03 01:06:52;;;;;;;15.65;9.93;;;486.90;2380.80;;;;;;4969002;28;20031;-53
2022/06/03 01:09:51;;;;;;;13.30;11.25;;;487.00;2380.80;;;;;;4969048;28;20050;-53
2022/06/03 01:12:43;;;;;;;15.48;9.57;;;486.90;2380.80;;;;;;4930558;29;20040;-55
2022/06/03 01:15:18;;;;;;;13.55;9.65;;;487.00;2380.80;;;;;;4944613;28;20745;-54
2022/06/03 01:18:07;;;;;;;14.77;10.18;;;486.90;2380.80;;;;;;4988318;28;20039;-53
2022/06/03 01:20:57;;;;;;;17.23;11.00;;;486.80;2380.80;;;;;;4988243;28;20481;-52
2022/06/03 01:23:54;;;;;;;13.63;10.02;;;486.80;2380.80;;;;;;4988217;28;20077;-55
2022/06/03 01:26:31;;;;;;;13.50;10.88;;;486.90;2380.80;;;;;;4988065;28;20436;-53
2022/06/03 01:28:59;;;;;;;15.27;10.07;;;486.90;2380.80;;;;;;4988321;28;20147;-54
2022/06/03 01:32:02;;;;;;;11.48;9.57;;;487.00;2380.80;;;;;;4988319;28;20038;-55
2022/06/03 01:34:38;;;;;;;17.80;11.45;;;487.00;2380.80;;;;;;4988323;28;20528;-55
2022/06/03 01:37:28;;;;;;;16.48;11.23;;;487.00;2380.80;;;;;;4988175;28;20050;-55
2022/06/03 01:40:32;;;;;;;13.88;10.20;;;486.90;2380.80;;;;;;4988258;28;20552;-55
2022/06/03 01:43:31;;;;;;;14.63;10.45;;;486.80;1996.80;;;;;;4930345;29;20569;-55
2022/06/03 01:46:23;;;;;;;13.23;9.23;;;486.80;2150.40;;;;;;4930377;29;20197;-54
2022/06/03 01:48:57;;;;;;;16.15;10.82;;;486.80;2227.20;;;;;;4930088;29;20138;-54
2022/06/03 01:51:38;;;;;;;15.45;10.95;;;486.70;2380.80;;;;;;4930129;29;20079;-55
2022/06/03 01:54:39;;;;;;;14.82;10.57;;;486.80;2380.80;;;;;;4930321;29;20083;-55
2022/06/03 01:57:38;;;;;;;17.10;10.90;;;486.80;2380.80;;;;;;4930525;29;20105;-54
2022/06/03 02:00:16;;;;;;;13.68;10.25;;;486.80;2380.80;;;;;;4930293;29;20048;-52
2022/06/03 02:03:09;;;;;;;12.98;10.05;;;486.80;2380.80;;;;;;4931520;29;20647;-55
2022/06/03 02:05:53;;;;;;;15.35;11.15;;;486.90;2380.80;;;;;;4933602;29;20592;-55
2022/06/03 02:08:28;;;;;;;16.52;11.70;;;486.90;2380.80;;;;;;4933358;29;20032;-54
2022/06/03 02:11:11;;;;;;;14.77;10.65;;;486.90;2380.80;;;;;;4933327;29;20089;-55
2022/06/03 02:13:49;;;;;;;14.82;10.98;;;487.00;2380.80;;;;;;4933603;29;20046;-54
2022/06/03 02:16:23;;;;;;;16.45;10.18;;;487.00;2380.80;;;;;;4933543;29;20024;-55
2022/06/03 02:19:26;;;;;;;16.25;10.05;;;487.00;2380.80;;;;;;4954028;28;20129;-53
2022/06/03 02:22:10;;;;;;;12.80;10.18;;;487.10;2380.80;;;;;;5012634;28;20037;-55
2022/06/03 02:24:47;;;;;;;13.23;9.35;;;487.10;2380.80;;;;;;5012918;28;20376;-53
2022/06/03 02:27:39;;;;;;;15.57;10.35;;;487.00;2380.80;;;;;;5012392;28;20030;-54
2022/06/03 02:30:27;;;;;;;18.17;11.23;;;487.00;2380.80;;;;;;5012864;28;20026;-54
2022/06/03 02:33:01;;;;;;;17.58;11.38;;;487.00;2380.80;;;;;;5012449;28;20036;-55
2022/06/03 02:36:04;;;;;;;15.70;10.85;;;487.00;2380.80;;;;;;5012760;28;20040;-56
2022/06/03 02:38:32;;;;;;;15.43;10.40;;;487.10;2380.80;;;;;;5012133;28;20060;-54
2022/06/03 02:41:36;;;;;;;14.55;9.32;;;487.00;2380.80;;;;;;5012740;28;20108;-55
2022/06/03 02:44:39;;;;;;;17.88;10.43;;;487.00;2380.80;;;;;;5012351;28;20088;-55
2022/06/03 02:47:26;;;;;;;16.50;10.35;;;486.80;2380.80;;;;;;5012472;28;20029;-55
2022/06/03 02:50:16;;;;;;;14.55;10.68;;;486.90;2380.80;;;;;;5012008;28;20037;-56
2022/06/03 02:53:23;;;;;;;14.20;11.05;;;486.90;2380.80;;;;;;5012173;28;20060;-56
2022/06/03 02:55:52;;;;;;;14.75;9.43;;;487.00;2380.80;;;;;;4970946;28;20042;-54
2022/06/03 02:58:24;;;;;;;15.05;10.13;;;487.00;2380.80;;;;;;4971060;28;20031;-55
2022/06/03 03:00:55;;;;;;;16.25;11.90;;;487.10;2380.80;;;;;;4970815;28;20039;-54
2022/06/03 03:03:58;;;;;;;13.48;9.90;;;487.20;2380.80;;;;;;4970705;28;20022;-54
2022/06/03 03:06:48;;;;;;;13.93;9.00;;;487.30;2380.80;;;;;;4970685;28;20496;-55
2022/06/03 03:09:40;;;;;;;15.50;10.20;;;487.30;2380.80;;;;;;4970835;28;20418;-55
2022/06/03 03:12:16;;;;;;;17.05;10.90;;;487.30;2380.80;;;;;;4970962;28;20118;-54
2022/06/03 03:14:57;;;;;;;14.63;10.32;;;512.00;2380.80;;;;;;4970478;28;20023;-55
2022/06/03 03:17:48;;;;;;;12.82;9.10;;;512.10;2380.80;;;;;;4970588;28;20391;-56
2022/06/03 03:20:26;;;;;;;12.93;9.52;;;512.20;2380.80;;;;;;4970518;28;20126;-57
2022/06/03 03:23:38;;;;;;;16.23;9.35;;;512.30;2380.80;;;;;;4970394;28;20457;-56
2022/06/03 03:26:22;;;;;;;13.38;8.98;;;512.50;2380.80;;;;;;4970539;28;20047;-54
2022/06/03 03:29:08;;;;;;;13.90;9.63;;;512.60;2380.80;;;;;;4970607;28;20031;-55
2022/06/03 03:31:43;;;;;;;15.40;8.75;;;512.80;2380.80;;;;;;4970722;28;20057;-56
2022/06/03 03:34:21;;;;;;;14.50;9.63;;;512.90;2380.80;;;;;;5011417;28;20052;-55
2022/06/03 03:37:07;;;;;;;17.50;10.65;;;537.60;2406.40;;;;;;5011224;28;20049;-56
2022/06/03 03:39:39;;;;;;;14.50;9.75;;;537.70;2406.40;;;;;;5011425;28;20037;-56
2022/06/03 03:42:14;;;;;;;14.25;9.98;;;537.90;2406.40;;;;;;5011803;28;20464;-55
2022/06/03 03:45:13;;;;;;;15.52;8.88;;;537.90;2406.40;;;;;;5011234;28;20026;-56
2022/06/03 03:47:53;;;;;;;13.32;9.75;;;537.90;2406.40;;;;;;5011515;28;20218;-56
2022/06/03 03:50:52;;;;;;;17.38;10.82;;;537.80;2406.40;;;;;;5011177;28;20053;-56
2022/06/03 03:54:04;;;;;;;17.27;10.90;;;537.90;2406.40;;;;;;4969999;28;20125;-56
2022/06/03 03:56:48;;;;;;;15.73;9.65;;;538.00;2406.40;;;;;;4960396;28;20046;-56
2022/06/03 03:59:32;;;;;;;14.65;10.20;;;538.10;2406.40;;;;;;4969724;28;20039;-55
2022/06/03 04:02:32;;;;;;;13.82;9.90;;;538.30;2406.40;;;;;;4969951;28;20429;-55
2022/06/03 04:05:39;;;;;;;14.10;10.40;;;538.50;2406.40;;;;;;4969792;28;20038;-55
2022/06/03 04:08:35;;;;;;;20.95;11.20;;;563.30;2432.00;;;;;;4931307;29;20038;-55
2022/06/03 04:11:38;;;;;;;15.43;10.65;;;563.40;2432.00;;;;;;4931316;29;20398;-56
2022/06/03 04:14:12;;;;;;;13.77;9.85;;;563.50;2432.00;;;;;;4931321;29;20034;-55
2022/06/03 04:17:05;;;;;;;16.58;8.98;;;563.60;2432.00;;;;;;4931192;29;20051;-56
2022/06/03 04:19:51;;;;;;;11.80;9.38;;;563.90;2432.00;;;;;;4931337;29;20481;-55
2022/06/03 04:22:46;;;;;;;12.80;9.27;;;588.90;2432.00;;;;;;4931258;29;20050;-55
2022/06/03 04:25:26;;;;;;;11.27;8.68;;;589.40;2432.00;;;;;;4930491;29;20036;-55
2022/06/03 04:28:25;;;;;;;12.75;9.75;;;614.50;2432.00;;;;;;4930913;29;20107;-55
2022/06/03 04:31:11;;;;;;;13.07;9.70;;;614.60;2432.00;;;;;;4949730;29;20035;-54
2022/06/03 04:34:08;;;;;;;11.15;9.02;;;614.60;2432.00;;;;;;4950159;28;20046;-56
2022/06/03 04:36:55;;;;;;;11.82;8.60;;;640.60;2432.00;;;;;;4950108;28;20110;-55
2022/06/03 04:39:47;;;;;;;10.55;8.38;;;717.20;2432.00;;;;;;4949855;29;20098;-55
2022/06/03 04:42:22;;;;;;;10.95;8.65;;;742.50;2304.00;;;;;;4949944;28;20089;-56
2022/06/03 04:45:20;;;;;;;11.30;8.63;;;717.70;2252.80;;;;;;4980081;28;20037;-55
2022/06/03 04:48:07;;;;;;;11.15;8.15;;;717.20;2355.20;;;;;;5010354;28;20026;-56
2022/06/03 04:50:51;;;;;;;9.30;7.78;;;717.10;2380.80;;;;;;5010279;28;20129;-56
2022/06/03 04:53:41;;;;;;;11.90;8.70;;;717.20;2380.80;;;;;;5010399;28;20579;-56
2022/06/03 04:56:48;;;;;;;12.90;8.38;;;691.70;2432.00;;;;;;5010572;28;20018;-55
2022/06/03 04:59:49;;;;;;;12.35;8.25;;;691.30;2432.00;;;;;;5010554;28;20045;-56
2022/06/03 05:02:24;;;;;;;10.32;9.10;;;691.90;2432.00;;;;;;5010376;28;20030;-56
2022/06/03 05:05:01;;;;;;;9.45;8.02;;;743.00;2201.60;;;;;;5010078;28;20384;-57
2022/06/03 05:07:35;;;;;;;9.73;8.73;;;794.20;1971.20;;;;;;5010258;28;20865;-57
2022/06/03 05:10:20;;;;;;;13.27;8.77;;;845.70;1715.20;;;;;;5010002;28;20034;-57
2022/06/03 05:13:07;;;;;;;9.55;8.55;;;896.70;1536.00;;;;;;5010350;28;20030;-55
2022/06/03 05:15:41;;;;;;;7.55;6.43;;;922.50;1459.20;;;;;;5010110;28;20033;-56
2022/06/03 05:18:12;;;;;;;9.73;7.60;;;871.00;1561.60;;;;;;5010294;28;20026;-57
2022/06/03 05:20:47;;;;;;;9.27;7.78;;;871.30;1561.60;;;;;;5010117;28;20065;-55
2022/06/03 05:23:38;;;;;;;10.73;7.68;;;871.00;1561.60;;;;;;5009786;28;20018;-57
2022/06/03 05:26:37;;;;;;;10.55;8.55;;;922.00;1459.20;;;;;;5009964;28;20169;-56
2022/06/03 05:29:20;;;;;;;10.13;8.80;;;973.10;1382.40;;;;;;5010004;28;20037;-59
2022/06/03 05:31:54;;;;;;;11.38;8.30;;;1024.00;1305.60;;;;;;5009918;28;20480;-56
2022/06/03 05:34:45;;;;;;;9.90;8.85;;;1024.70;1254.40;;;;;;5009610;28;20120;-56
2022/06/03 05:37:32;;;;;;;9.82;8.93;;;1075.30;1228.80;;;;;;5010620;28;20042;-57
2022/06/03 05:40:24;;;;;;;12.05;10.05;;;1075.70;1152.00;;;;;;5013682;28;20042;-57
2022/06/03 05:43:26;;;;;;;11.20;10.05;;;1101.50;1126.40;;;;;;5013558;28;20025;-56
2022/06/03 05:46:09;;;;;;;10.20;9.27;;;1127.10;1075.20;;;;;;5013286;28;20109;-57
2022/06/03 05:48:48;;;;;;;9.02;7.05;;;1152.40;1049.60;;;;;;5013697;28;20029;-57
2022/06/03 05:51:32;;;;;;;9.23;8.32;;;1049.70;1177.60;;;;;;5013466;28;20022;-56
2022/06/03 05:54:26;;;;;;;9.82;7.50;;;947.80;1331.20;;;;;;5013348;28;20034;-57
2022/06/03 05:57:03;;;;;;;7.35;6.68;;;896.30;1459.20;;;;;;5012948;28;20038;-58
2022/06/03 05:59:47;;;;;;;8.38;7.43;;;870.90;1484.80;;;;;;5013273;28;20057;-56
2022/06/03 06:02:31;;;;;;;8.65;7.75;;;870.90;1510.40;;;;;;5013310;28;20476;-56
2022/06/03 06:05:27;;;;;;;7.68;6.53;;;845.00;1587.20;;;;;;5013336;28;20503;-57
2022/06/03 06:08:13;;;;;;;10.73;6.80;;;819.80;1587.20;;;;;;5012941;28;20057;-56
2022/06/03 06:10:50;;;;;;;7.78;6.80;;;794.50;1638.40;;;;;;5013160;28;20178;-55
2022/06/03 06:13:41;;;;;;;10.40;7.75;;;794.20;1715.20;;;;;;5013247;28;20029;-56
2022/06/03 06:16:19;;;;;;;9.65;7.90;;;768.90;1715.20;;;;;;5013269;28;20032;-55
2022/06/03 06:19:09;;;;;;;10.07;8.02;;;768.70;1715.20;;;;;;5012995;28;20061;-57
2022/06/03 06:21:56;;;;;;;9.95;7.60;;;768.90;1740.80;;;;;;5013058;28;20026;-57
2022/06/03 06:24:42;;;;;;;9.15;6.38;;;793.60;1766.40;;;;;;5012596;28;20544;-57
2022/06/03 06:27:41;;;;;;;7.57;5.72;;;793.80;1740.80;;;;;;5012574;28;20037;-57
2022/06/03 06:30:11;;;;;;;7.32;6.03;;;794.20;1689.60;;;;;;5012934;28;20018;-57
2022/06/03 06:32:43;;;;;;;8.77;7.10;;;793.80;1766.40;;;;;;5012785;28;20029;-58
2022/06/03 06:35:28;;;;;;;7.47;6.55;;;793.80;1766.40;;;;;;5012732;28;20472;-57
2022/06/03 06:38:06;;;;;;;8.70;5.80;;;793.70;1766.40;;;;;;5012360;28;20054;-57
2022/06/03 06:40:37;;;;;;;10.82;6.22;;;794.00;1715.20;;;;;;5012758;28;20046;-57
2022/06/03 06:43:44;;;;;;;7.38;5.85;;;819.20;1664.00;;;;;;5012589;28;20018;-57
2022/06/03 06:46:34;;;;;;;10.73;7.80;;;844.90;1638.40;;;;;;5012508;28;20030;-58
2022/06/03 06:49:23;;;;;;;9.57;8.70;;;871.30;1459.20;;;;;;5011936;28;20045;-59
2022/06/03 06:52:16;;;;;;;7.53;6.82;;;1024.40;1228.80;;;;;;5012444;28;20501;-58
2022/06/03 06:54:53;;;;;;;10.30;7.32;;;999.30;1203.20;;;;;;5012328;28;20503;-58
2022/06/03 06:57:23;;;;;;;6.68;5.97;;;947.60;1280.00;;;;;;5012444;28;20388;-58
2022/06/03 07:00:07;;;;;;;7.88;7.15;;;947.20;1331.20;;;;;;5012132;28;20042;-58
2022/06/03 07:02:37;;;;;;;8.18;7.32;;;947.70;1305.60;;;;;;5011910;28;20022;-58
2022/06/03 07:05:30;;;;;;;7.15;6.55;;;999.30;1228.80;;;;;;5012103;28;20060;-58
2022/06/03 07:08:01;;;;;;;9.10;8.15;;;1049.60;1203.20;;;;;;5012172;28;20040;-58
2022/06/03 07:10:29;;;;;;;9.25;8.50;;;1075.60;1126.40;;;;;;5012243;28;20105;-58
2022/06/03 07:13:21;;;;;;;9.77;8.98;;;1127.10;1075.20;;;;;;5012017;28;20028;-58
2022/06/03 07:15:53;;;;;;;10.25;9.55;;;1178.50;972.80;;;;;;5010749;28;20417;-58
2022/06/03 07:21:57;;;;;;;10.70;9.82;;;1126.80;1049.60;;;;;;5011617;28;20045;-58
2022/06/03 07:24:32;;;;;;;11.32;10.43;;;1126.60;1024.00;;;;;;5010188;28;20037;-58
2022/06/03 07:27:07;;;;;;;12.15;11.18;;;1177.60;998.40;;;;;;5011658;28;20029;-58
2022/06/03 07:29:51;;;;;;;11.85;10.85;;;1204.10;947.20;;;;;;5011640;28;20041;-58
2022/06/03 07:32:28;;;;;;;9.43;8.73;;;1254.60;972.80;;;;;;5011783;28;20030;-58
2022/06/03 07:35:04;;;;;;;8.75;7.95;;;1177.70;998.40;;;;;;5011615;28;20022;-58
2022/06/03 07:37:33;;;;;;;9.07;8.18;;;1075.30;1100.80;;;;;;5011261;28;20050;-58
2022/06/03 07:40:42;;;;;;;9.80;9.02;;;1049.70;1152.00;;;;;;5011516;28;20034;-58
2022/06/03 07:43:16;;;;;;;10.40;9.55;;;1024.30;1152.00;;;;;;4989724;28;20041;-58
2022/06/03 07:46:02;;;;;;;10.80;9.70;;;1127.10;1024.00;;;;;;4989336;28;20038;-58
2022/06/03 07:48:32;;;;;;;10.68;9.65;;;1178.20;972.80;;;;;;4989416;28;20038;-58
2022/06/03 07:51:05;;;;;;;11.10;10.20;;;1203.70;947.20;;;;;;4989185;28;20030;-58
2022/06/03 07:53:35;;;;;;;12.18;11.27;;;1178.10;972.80;;;;;;4988965;28;20043;-58
2022/06/03 07:56:02;;;;;;;13.70;12.63;;;1203.40;972.80;;;;;;4989254;28;20022;-59
2022/06/03 07:58:31;;;;;;;12.88;11.68;;;1178.20;972.80;;;;;;4989329;28;20042;-58
2022/06/03 08:00:56;;;;;;;12.07;11.18;;;1203.90;947.20;;;;;;4988768;28;20078;-58
2022/06/03 08:03:25;;;;;;;12.13;11.10;;;1228.80;947.20;;;;;;4989249;28;20169;-59
2022/06/03 08:05:58;;;;;;;11.90;10.93;;;1203.60;947.20;;;;;;4989117;28;20373;-58
2022/06/03 08:11:16;;;;;;;10.75;9.95;;;1152.70;998.40;;;;;;4988956;28;20063;-58
2022/06/03 08:13:42;;;;;;;11.52;10.63;;;1126.90;1024.00;;;;;;4988928;28;20027;-58
2022/06/03 08:16:20;;;;;;;9.77;8.82;;;1075.90;1049.60;;;;;;4989082;28;20060;-58
2022/06/03 08:18:47;;;;;;;10.13;9.02;;;1049.80;1152.00;;;;;;5002005;28;20041;-58
2022/06/03 08:21:22;;;;;;;9.43;8.13;;;973.10;1203.20;;;;;;5010440;28;20030;-57
2022/06/03 08:23:48;;;;;;;10.48;7.68;;;922.10;1280.00;;;;;;5010567;28;20030;-58
2022/06/03 08:26:17;;;;;;;7.45;6.57;;;921.90;1280.00;;;;;;5010351;28;20036;-58
2022/06/03 08:28:53;;;;;;;8.45;7.65;;;896.90;1305.60;;;;;;5010488;28;20085;-58
2022/06/03 08:31:22;;;;;;;9.93;7.20;;;896.80;1305.60;;;;;;5010727;28;20014;-57
2022/06/03 08:33:58;;;;;;;8.55;7.45;;;921.70;1356.80;;;;;;5010428;28;20515;-57
2022/06/03 08:36:27;;;;;;;9.75;8.30;;;896.70;1382.40;;;;;;5010542;28;20377;-58
2022/06/03 08:39:04;;;;;;;9.18;7.07;;;870.90;1408.00;;;;;;5010171;28;20069;-57
2022/06/03 08:41:41;;;;;;;7.93;6.75;;;871.10;1408.00;;;;;;5010512;28;20490;-58
2022/06/03 08:44:28;;;;;;;8.38;7.22;;;871.20;1408.00;;;;;;5010671;28;20032;-58
2022/06/03 08:47:17;;;;;;;7.40;6.35;;;870.50;1433.60;;;;;;5010488;28;20083;-57
2022/06/03 08:49:51;;;;;;;8.75;6.93;;;870.70;1459.20;;;;;;5010217;28;20149;-57
2022/06/03 08:52:21;;;;;;;8.63;7.82;;;870.50;1433.60;;;;;;5010592;28;20101;-57
2022/06/03 08:54:52;;;;;;;9.75;8.05;;;845.40;1459.20;;;;;;5010528;28;20022;-57
2022/06/03 08:57:40;;;;;;;10.65;8.52;;;819.80;1510.40;;;;;;5010485;28;20034;-57
2022/06/03 09:00:16;;;;;;;11.50;9.88;;;819.30;1536.00;;;;;;5010292;28;20041;-57
2022/06/03 09:02:56;;;;;;;12.05;8.77;;;819.20;1561.60;;;;;;5010106;28;20037;-57
2022/06/03 09:05:26;;;;;;;9.50;8.50;;;819.60;1536.00;;;;;;5010110;28;20030;-57
2022/06/03 09:08:10;;;;;;;10.82;9.73;;;819.60;1561.60;;;;;;5010153;28;20083;-57
2022/06/03 09:10:51;;;;;;;10.70;9.60;;;819.30;1510.40;;;;;;5010491;28;20038;-57
2022/06/03 09:13:21;;;;;;;11.20;10.05;;;819.50;1536.00;;;;;;5014343;28;20384;-57
2022/06/03 09:15:48;;;;;;;11.77;9.10;;;794.50;1561.60;;;;;;5014099;28;20026;-57
2022/06/03 09:18:44;;;;;;;9.73;8.57;;;819.70;1561.60;;;;;;5014064;28;20033;-57
2022/06/03 09:21:18;;;;;;;10.75;9.65;;;819.30;1561.60;;;;;;5013838;28;20064;-57
2022/06/03 09:23:54;;;;;;;11.07;9.38;;;819.20;1561.60;;;;;;5014133;28;20046;-57
2022/06/03 09:26:28;;;;;;;12.65;10.05;;;819.20;1561.60;;;;;;5013699;28;20026;-58
2022/06/03 09:28:57;;;;;;;10.70;9.60;;;819.50;1561.60;;;;;;5013743;28;20083;-57
2022/06/03 09:31:24;;;;;;;11.57;10.38;;;819.30;1536.00;;;;;;5013807;28;20018;-57
2022/06/03 09:33:50;;;;;;;11.07;9.98;;;794.40;1561.60;;;;;;5013825;28;20030;-58
2022/06/03 09:36:18;;;;;;;11.88;10.60;;;819.70;1561.60;;;;;;5013786;28;20024;-57
2022/06/03 09:39:02;;;;;;;11.70;10.30;;;819.60;1536.00;;;;;;5013296;28;20061;-57
2022/06/03 09:41:33;;;;;;;11.68;10.38;;;794.20;1561.60;;;;;;5013944;28;20121;-57
2022/06/03 09:44:03;;;;;;;12.07;9.88;;;794.50;1536.00;;;;;;5013821;28;20034;-56
2022/06/03 09:46:31;;;;;;;10.50;9.40;;;794.30;1536.00;;;;;;5014059;28;20037;-57
2022/06/03 09:48:58;;;;;;;11.02;9.88;;;794.50;1561.60;;;;;;5013666;28;20391;-57
2022/06/03 09:54:21;;;;;;;9.48;8.48;;;794.30;1536.00;;;;;;5013588;28;20399;-57
2022/06/03 09:56:50;;;;;;;11.35;9.75;;;794.30;1561.60;;;;;;5013475;28;20101;-56
2022/06/03 09:59:19;;;;;;;12.90;10.15;;;819.40;1510.40;;;;;;5013452;28;20096;-57
2022/06/03 10:01:46;;;;;;;12.45;9.95;;;794.50;1536.00;;;;;;5013737;28;20028;-56
2022/06/03 10:04:12;;;;;;;14.32;11.35;;;794.40;1561.60;;;;;;5013264;28;20033;-57
2022/06/03 10:06:46;;;;;;;13.27;10.88;;;819.30;1536.00;;;;;;5013231;28;20021;-57
2022/06/03 10:14:44;;;;;;;13.57;11.38;;;794.40;1561.60;;;;;;5013173;28;20033;-57
2022/06/03 10:17:12;;;;;;;11.40;10.20;;;794.00;1612.80;;;;;;5012913;28;20022;-57
2022/06/03 10:19:38;;;;;;;13.70;10.43;;;794.40;1561.60;;;;;;5012997;28;20034;-57
2022/06/03 10:22:09;;;;;;;13.30;11.88;;;794.00;1561.60;;;;;;5012773;28;20100;-57
2022/06/03 10:24:36;;;;;;;13.50;12.10;;;794.50;1561.60;;;;;;5012549;28;20030;-57
2022/06/03 10:27:05;;;;;;;13.43;10.07;;;794.50;1612.80;;;;;;5012817;28;20034;-56
2022/06/03 10:29:31;;;;;;;13.63;10.80;;;794.40;1587.20;;;;;;5012822;28;20472;-56
2022/06/03 10:32:02;;;;;;;14.02;11.00;;;794.50;1587.20;;;;;;5012841;28;20055;-56
2022/06/03 10:34:35;;;;;;;13.27;11.40;;;794.50;1587.20;;;;;;5012620;28;20056;-55
2022/06/03 10:37:02;;;;;;;11.63;10.38;;;794.10;1587.20;;;;;;5012209;28;20395;-57
2022/06/03 10:39:30;;;;;;;12.85;9.95;;;794.10;1612.80;;;;;;5012982;28;20065;-56
2022/06/03 10:41:58;;;;;;;11.85;10.27;;;794.00;1587.20;;;;;;5012893;28;20030;-56
2022/06/03 10:44:36;;;;;;;12.88;9.85;;;794.10;1587.20;;;;;;5012706;28;20049;-56
2022/06/03 10:47:13;;;;;;;12.25;10.73;;;794.40;1561.60;;;;;;5012404;28;20030;-59
2022/06/03 10:49:56;;;;;;;10.52;9.43;;;819.70;1587.20;;;;;;5012432;28;20018;-56
2022/06/03 11:01:11;;;;;;;10.43;9.38;;;819.30;1612.80;;;;;;5012783;28;20037;-58
2022/06/03 11:03:44;;;;;;;10.00;9.00;;;819.40;1561.60;;;;;;5012477;28;20030;-56
2022/06/03 11:06:14;;;;;;;9.32;8.43;;;794.50;1587.20;;;;;;5011961;28;20436;-56
2022/06/03 11:09:00;;;;;;;9.80;8.80;;;794.40;1587.20;;;;;;5011759;28;20088;-56
2022/06/03 11:11:39;;;;;;;9.00;7.93;;;794.50;1612.80;;;;;;5011962;28;20038;-56
2022/06/03 11:14:26;;;;;;;7.93;7.07;;;794.20;1536.00;;;;;;5012244;28;20026;-56
2022/06/03 11:17:04;;;;;;;9.10;8.18;;;794.10;1612.80;;;;;;5012007;28;20022;-56
2022/06/03 11:19:44;;;;;;;8.40;7.57;;;794.20;1587.20;;;;;;5011751;28;20036;-57
2022/06/03 11:22:11;;;;;;;9.65;7.68;;;819.30;1536.00;;;;;;5011679;28;20037;-56
2022/06/03 11:24:38;;;;;;;7.68;6.88;;;819.20;1561.60;;;;;;5011725;28;20476;-56
2022/06/03 11:27:07;;;;;;;8.50;7.03;;;819.60;1561.60;;;;;;5011505;28;20026;-56
2022/06/03 11:29:38;;;;;;;9.23;7.22;;;794.50;1561.60;;;;;;5011727;28;20037;-56
2022/06/03 11:32:08;;;;;;;8.25;7.45;;;794.20;1561.60;;;;;;5011667;28;20376;-57
2022/06/03 11:34:58;;;;;;;7.93;7.13;;;794.20;1612.80;;;;;;5011551;28;20365;-57
2022/06/03 11:37:29;;;;;;;8.63;6.32;;;819.30;1587.20;;;;;;5011072;28;20160;-57
2022/06/03 11:40:27;;;;;;;10.75;6.75;;;794.00;1587.20;;;;;;5011811;28;20042;-57
2022/06/03 11:43:04;;;;;;;10.48;6.68;;;793.70;1612.80;;;;;;5010929;28;20084;-57
2022/06/03 11:45:52;;;;;;;7.13;5.97;;;793.90;1587.20;;;;;;5011286;28;20052;-57
2022/06/03 11:48:17;;;;;;;7.05;6.35;;;793.80;1612.80;;;;;;5011691;28;20378;-57
2022/06/03 11:50:43;;;;;;;7.40;6.00;;;794.20;1664.00;;;;;;5011196;28;20033;-57
2022/06/03 11:53:09;;;;;;;8.18;6.85;;;794.40;1587.20;;;;;;5011264;28;20040;-56
2022/06/03 11:55:38;;;;;;;11.55;6.28;;;794.20;1587.20;;;;;;5011372;28;20068;-57
2022/06/03 11:58:25;;;;;;;7.20;5.30;;;794.50;1612.80;;;;;;5011205;28;20065;-57
2022/06/03 12:01:03;;;;;;;7.40;6.10;;;793.90;1587.20;;;;;;5011015;28;20041;-57
2022/06/03 12:03:32;;;;;;;8.32;5.55;;;793.70;1612.80;;;;;;5011353;28;20420;-57
2022/06/03 12:06:15;;;;;;;7.50;6.28;;;793.70;1587.20;;;;;;5011202;28;20405;-56
2022/06/03 12:08:51;;;;;;;9.23;5.90;;;793.70;1587.20;;;;;;5010762;28;20400;-57
2022/06/03 12:14:25;;;;;;;7.28;6.32;;;794.20;1587.20;;;;;;5011079;28;20044;-56
2022/06/03 12:16:53;;;;;;;7.25;5.88;;;768.90;1561.60;;;;;;5010734;28;20025;-57
2022/06/03 12:19:40;;;;;;;7.22;6.15;;;793.60;1612.80;;;;;;5010826;28;20580;-56
2022/06/03 12:22:32;;;;;;;10.05;6.40;;;768.90;1587.20;;;;;;5010894;28;20037;-56
2022/06/03 12:25:03;;;;;;;10.70;6.53;;;793.60;1587.20;;;;;;5010822;28;20091;-57
2022/06/03 12:27:31;;;;;;;7.63;6.85;;;793.70;1561.60;;;;;;5010793;28;20018;-56
2022/06/03 12:30:14;;;;;;;9.15;6.85;;;793.90;1587.20;;;;;;5010605;28;20376;-56
2022/06/03 12:33:06;;;;;;;6.38;5.75;;;793.80;1561.60;;;;;;5010651;28;20033;-57
2022/06/03 12:35:47;;;;;;;8.50;5.80;;;794.00;1587.20;;;;;;5009930;28;20034;-56
2022/06/03 12:38:19;;;;;;;7.18;5.57;;;793.70;1587.20;;;;;;5009906;28;20401;-56
2022/06/03 12:40:49;;;;;;;5.93;5.22;;;768.90;1561.60;;;;;;5010729;28;20121;-56
2022/06/03 12:43:46;;;;;;;6.68;5.95;;;768.90;1536.00;;;;;;5010502;28;20101;-56
2022/06/03 12:46:43;;;;;;;7.60;5.68;;;768.70;1561.60;;;;;;5009598;28;20053;-55
2022/06/03 12:49:43;;;;;;;6.20;5.50;;;768.90;1536.00;;;;;;5017041;28;20063;-56
2022/06/03 12:52:29;;;;;;;5.97;5.30;;;793.70;1561.60;;;;;;5027374;28;20032;-56
2022/06/03 12:54:54;;;;;;;8.52;5.85;;;793.60;1536.00;;;;;;5029981;28;20057;-56
2022/06/03 12:57:29;;;;;;;6.53;5.32;;;794.10;1638.40;;;;;;5029966;28;20049;-57
2022/06/03 13:00:00;;;;;;;5.45;4.95;;;794.40;1561.60;;;;;;5030200;28;20563;-56
2022/06/03 13:02:35;;;;;;;8.05;5.65;;;794.10;1510.40;;;;;;5030197;28;20033;-56
2022/06/03 13:05:01;;;;;;;7.50;5.00;;;793.60;1536.00;;;;;;5030007;28;20038;-56
2022/06/03 13:07:26;;;;;;;8.73;5.57;;;794.00;1561.60;;;;;;5030059;28;20029;-56
2022/06/03 13:10:04;;;;;;;7.97;6.32;;;794.00;1536.00;;;;;;5029856;28;20487;-56
2022/06/03 13:12:32;;;;;;;10.38;5.78;;;768.80;1536.00;;;;;;5029859;28;20026;-56
2022/06/03 13:15:19;;;;;;;8.80;6.03;;;768.80;1561.60;;;;;;5029955;28;20030;-56
2022/06/03 13:17:59;;;;;;;8.15;5.00;;;793.80;1561.60;;;;;;5029918;28;20083;-57
2022/06/03 13:20:44;;;;;;;5.97;5.40;;;793.90;1536.00;;;;;;5029774;28;20040;-57
2022/06/03 13:23:19;;;;;;;8.32;5.30;;;793.80;1536.00;;;;;;5027756;28;20025;-57
2022/06/03 13:25:46;;;;;;;7.28;5.78;;;793.60;1561.60;;;;;;5028345;28;20751;-56
2022/06/03 13:28:30;;;;;;;8.13;6.60;;;768.90;1510.40;;;;;;5028161;28;20452;-56
2022/06/03 13:31:22;;;;;;;6.90;6.20;;;793.70;1536.00;;;;;;5028059;28;20112;-56
2022/06/03 13:34:09;;;;;;;7.07;5.82;;;793.80;1510.40;;;;;;5019556;28;20152;-56
2022/06/03 13:36:50;;;;;;;7.65;6.85;;;794.00;1587.20;;;;;;5027662;28;20017;-56
2022/06/03 13:39:28;;;;;;;6.57;5.53;;;793.80;1510.40;;;;;;5027880;28;20060;-56
2022/06/03 13:45:03;;;;;;;7.20;6.45;;;794.20;1536.00;;;;;;5028166;28;20084;-56